sensor_id;sensor_type;location;lat;lon;timestamp;P1;durP1;ratioP1;P2;durP2;ratioP2
62788;SDS011;66401;42.016;21.454;2023-07-13T00:01:47;25.20;;;13.87;;
62788;SDS011;66401;42.016;21.454;2023-07-13T00:04:15;27.27;;;16.73;;
62788;SDS011;66401;42.016;21.454;2023-07-13T00:06:43;22.80;;;13.83;;
62788;SDS011;66401;42.016;21.454;2023-07-13T00:09:13;24.07;;;13.43;;
62788;SDS011;66401;42.016;21.454;2023-07-13T00:11:39;21.50;;;12.50;;
62788;SDS011;66401;42.016;21.454;2023-07-13T00:14:05;16.03;;;10.83;;
62788;SDS011;66401;42.016;21.454;2023-07-13T00:16:32;14.33;;;9.67;;
62788;SDS011;66401;42.016;21.454;2023-07-13T00:18:59;11.57;;;8.47;;
62788;SDS011;66401;42.016;21.454;2023-07-13T00:21:25;11.80;;;7.60;;
62788;SDS011;66401;42.016;21.454;2023-07-13T00:23:51;10.30;;;7.00;;
62788;SDS011;66401;42.016;21.454;2023-07-13T00:26:17;12.97;;;7.33;;
62788;SDS011;66401;42.016;21.454;2023-07-13T00:28:43;14.77;;;7.33;;
62788;SDS011;66401;42.016;21.454;2023-07-13T00:31:09;15.57;;;8.17;;
62788;SDS011;66401;42.016;21.454;2023-07-13T00:33:36;11.97;;;7.93;;
62788;SDS011;66401;42.016;21.454;2023-07-13T00:36:02;10.80;;;8.03;;
62788;SDS011;66401;42.016;21.454;2023-07-13T00:38:28;9.30;;;7.67;;
62788;SDS011;66401;42.016;21.454;2023-07-13T00:40:54;10.83;;;7.70;;
62788;SDS011;66401;42.016;21.454;2023-07-13T00:43:21;11.90;;;7.57;;
62788;SDS011;66401;42.016;21.454;2023-07-13T00:48:14;12.90;;;7.30;;
62788;SDS011;66401;42.016;21.454;2023-07-13T00:50:44;7.53;;;6.60;;
62788;SDS011;66401;42.016;21.454;2023-07-13T00:53:11;9.30;;;6.53;;
62788;SDS011;66401;42.016;21.454;2023-07-13T00:55:37;11.83;;;6.53;;
62788;SDS011;66401;42.016;21.454;2023-07-13T00:58:04;10.77;;;7.03;;
62788;SDS011;66401;42.016;21.454;2023-07-13T01:00:31;9.60;;;6.70;;
62788;SDS011;66401;42.016;21.454;2023-07-13T01:02:59;10.67;;;6.80;;
62788;SDS011;66401;42.016;21.454;2023-07-13T01:05:29;9.83;;;6.20;;
62788;SDS011;66401;42.016;21.454;2023-07-13T01:07:57;9.00;;;6.10;;
62788;SDS011;66401;42.016;21.454;2023-07-13T01:10:24;7.97;;;6.37;;
62788;SDS011;66401;42.016;21.454;2023-07-13T01:12:50;9.80;;;6.37;;
62788;SDS011;66401;42.016;21.454;2023-07-13T01:18:26;8.63;;;6.30;;
62788;SDS011;66401;42.016;21.454;2023-07-13T01:20:54;7.60;;;5.87;;
62788;SDS011;66401;42.016;21.454;2023-07-13T01:23:21;11.50;;;6.47;;
62788;SDS011;66401;42.016;21.454;2023-07-13T01:25:47;7.83;;;5.87;;
62788;SDS011;66401;42.016;21.454;2023-07-13T01:28:13;7.67;;;5.83;;
62788;SDS011;66401;42.016;21.454;2023-07-13T01:30:40;6.97;;;5.43;;
62788;SDS011;66401;42.016;21.454;2023-07-13T01:33:06;11.30;;;6.37;;
62788;SDS011;66401;42.016;21.454;2023-07-13T01:35:34;10.73;;;5.80;;
62788;SDS011;66401;42.016;21.454;2023-07-13T01:38:00;8.93;;;6.00;;
62788;SDS011;66401;42.016;21.454;2023-07-13T01:40:26;7.13;;;5.13;;
62788;SDS011;66401;42.016;21.454;2023-07-13T01:42:53;11.47;;;5.97;;
62788;SDS011;66401;42.016;21.454;2023-07-13T01:45:18;6.90;;;5.17;;
62788;SDS011;66401;42.016;21.454;2023-07-13T01:47:44;7.83;;;5.80;;
62788;SDS011;66401;42.016;21.454;2023-07-13T01:50:09;8.23;;;5.23;;
62788;SDS011;66401;42.016;21.454;2023-07-13T01:52:35;9.57;;;5.80;;
62788;SDS011;66401;42.016;21.454;2023-07-13T01:55:01;7.90;;;5.00;;
62788;SDS011;66401;42.016;21.454;2023-07-13T01:57:27;7.87;;;5.53;;
62788;SDS011;66401;42.016;21.454;2023-07-13T01:59:53;7.13;;;5.30;;
62788;SDS011;66401;42.016;21.454;2023-07-13T02:02:18;5.90;;;5.33;;
62788;SDS011;66401;42.016;21.454;2023-07-13T02:04:44;8.73;;;5.40;;
62788;SDS011;66401;42.016;21.454;2023-07-13T02:07:10;8.70;;;5.60;;
62788;SDS011;66401;42.016;21.454;2023-07-13T02:09:36;11.37;;;6.03;;
62788;SDS011;66401;42.016;21.454;2023-07-13T02:12:02;7.47;;;5.60;;
62788;SDS011;66401;42.016;21.454;2023-07-13T02:14:32;10.83;;;5.13;;
62788;SDS011;66401;42.016;21.454;2023-07-13T02:16:57;6.90;;;5.23;;
62788;SDS011;66401;42.016;21.454;2023-07-13T02:19:23;10.67;;;5.60;;
62788;SDS011;66401;42.016;21.454;2023-07-13T02:21:48;9.27;;;5.70;;
62788;SDS011;66401;42.016;21.454;2023-07-13T02:24:14;9.40;;;5.23;;
62788;SDS011;66401;42.016;21.454;2023-07-13T02:26:42;9.57;;;6.10;;
62788;SDS011;66401;42.016;21.454;2023-07-13T02:29:09;9.53;;;5.53;;
62788;SDS011;66401;42.016;21.454;2023-07-13T02:31:35;10.07;;;6.23;;
62788;SDS011;66401;42.016;21.454;2023-07-13T02:34:01;8.13;;;5.97;;
62788;SDS011;66401;42.016;21.454;2023-07-13T02:36:28;7.47;;;5.80;;
62788;SDS011;66401;42.016;21.454;2023-07-13T02:38:53;13.77;;;6.07;;
62788;SDS011;66401;42.016;21.454;2023-07-13T02:41:19;8.97;;;6.17;;
62788;SDS011;66401;42.016;21.454;2023-07-13T02:43:44;8.13;;;6.47;;
62788;SDS011;66401;42.016;21.454;2023-07-13T02:46:10;10.33;;;6.13;;
62788;SDS011;66401;42.016;21.454;2023-07-13T02:48:36;10.40;;;5.50;;
62788;SDS011;66401;42.016;21.454;2023-07-13T02:51:02;8.70;;;5.57;;
62788;SDS011;66401;42.016;21.454;2023-07-13T02:53:28;8.07;;;5.50;;
62788;SDS011;66401;42.016;21.454;2023-07-13T02:55:54;9.17;;;5.93;;
62788;SDS011;66401;42.016;21.454;2023-07-13T02:58:19;10.97;;;5.90;;
62788;SDS011;66401;42.016;21.454;2023-07-13T03:00:45;12.03;;;5.50;;
62788;SDS011;66401;42.016;21.454;2023-07-13T03:03:12;10.40;;;6.07;;
62788;SDS011;66401;42.016;21.454;2023-07-13T03:05:40;7.80;;;5.43;;
62788;SDS011;66401;42.016;21.454;2023-07-13T03:08:07;8.10;;;5.63;;
62788;SDS011;66401;42.016;21.454;2023-07-13T03:10:34;10.30;;;5.90;;
62788;SDS011;66401;42.016;21.454;2023-07-13T03:13:00;6.70;;;5.83;;
62788;SDS011;66401;42.016;21.454;2023-07-13T03:15:25;12.17;;;6.10;;
62788;SDS011;66401;42.016;21.454;2023-07-13T03:17:52;7.47;;;5.73;;
62788;SDS011;66401;42.016;21.454;2023-07-13T03:20:17;9.30;;;5.57;;
62788;SDS011;66401;42.016;21.454;2023-07-13T03:22:43;7.50;;;6.00;;
62788;SDS011;66401;42.016;21.454;2023-07-13T03:25:09;10.50;;;6.13;;
62788;SDS011;66401;42.016;21.454;2023-07-13T03:27:35;8.03;;;5.60;;
62788;SDS011;66401;42.016;21.454;2023-07-13T03:30:01;7.80;;;5.63;;
62788;SDS011;66401;42.016;21.454;2023-07-13T03:32:27;11.30;;;6.17;;
62788;SDS011;66401;42.016;21.454;2023-07-13T03:34:52;10.40;;;6.47;;
62788;SDS011;66401;42.016;21.454;2023-07-13T03:37:18;11.23;;;5.77;;
62788;SDS011;66401;42.016;21.454;2023-07-13T03:39:44;8.33;;;6.10;;
62788;SDS011;66401;42.016;21.454;2023-07-13T03:42:09;9.50;;;6.40;;
62788;SDS011;66401;42.016;21.454;2023-07-13T03:44:35;7.37;;;5.67;;
62788;SDS011;66401;42.016;21.454;2023-07-13T03:47:01;9.43;;;6.33;;
62788;SDS011;66401;42.016;21.454;2023-07-13T03:49:26;9.93;;;6.13;;
62788;SDS011;66401;42.016;21.454;2023-07-13T03:51:52;9.80;;;6.17;;
62788;SDS011;66401;42.016;21.454;2023-07-13T03:54:17;9.07;;;5.80;;
62788;SDS011;66401;42.016;21.454;2023-07-13T03:56:43;9.33;;;6.13;;
62788;SDS011;66401;42.016;21.454;2023-07-13T03:59:08;11.63;;;6.27;;
62788;SDS011;66401;42.016;21.454;2023-07-13T04:01:34;8.87;;;5.57;;
62788;SDS011;66401;42.016;21.454;2023-07-13T04:03:59;8.17;;;5.70;;
62788;SDS011;66401;42.016;21.454;2023-07-13T04:06:26;10.03;;;5.93;;
62788;SDS011;66401;42.016;21.454;2023-07-13T04:08:55;11.20;;;6.20;;
62788;SDS011;66401;42.016;21.454;2023-07-13T04:11:23;12.33;;;5.37;;
62788;SDS011;66401;42.016;21.454;2023-07-13T04:13:50;10.80;;;6.07;;
62788;SDS011;66401;42.016;21.454;2023-07-13T04:18:46;6.20;;;5.27;;
62788;SDS011;66401;42.016;21.454;2023-07-13T04:21:13;9.20;;;5.67;;
62788;SDS011;66401;42.016;21.454;2023-07-13T04:23:39;7.03;;;4.77;;
62788;SDS011;66401;42.016;21.454;2023-07-13T04:26:05;9.87;;;5.07;;
62788;SDS011;66401;42.016;21.454;2023-07-13T04:28:31;6.20;;;4.90;;
62788;SDS011;66401;42.016;21.454;2023-07-13T04:30:57;8.70;;;5.30;;
62788;SDS011;66401;42.016;21.454;2023-07-13T04:33:22;7.00;;;4.60;;
62788;SDS011;66401;42.016;21.454;2023-07-13T04:35:49;9.30;;;4.73;;
62788;SDS011;66401;42.016;21.454;2023-07-13T04:38:21;7.53;;;5.03;;
62788;SDS011;66401;42.016;21.454;2023-07-13T04:40:47;13.73;;;5.43;;
62788;SDS011;66401;42.016;21.454;2023-07-13T04:43:13;6.60;;;5.40;;
62788;SDS011;66401;42.016;21.454;2023-07-13T04:45:39;10.73;;;5.20;;
62788;SDS011;66401;42.016;21.454;2023-07-13T04:48:05;8.00;;;5.60;;
62788;SDS011;66401;42.016;21.454;2023-07-13T04:50:30;8.73;;;5.00;;
62788;SDS011;66401;42.016;21.454;2023-07-13T04:52:56;9.97;;;5.47;;
62788;SDS011;66401;42.016;21.454;2023-07-13T04:55:21;8.73;;;5.20;;
62788;SDS011;66401;42.016;21.454;2023-07-13T04:57:47;8.70;;;5.43;;
62788;SDS011;66401;42.016;21.454;2023-07-13T05:00:13;8.53;;;5.60;;
62788;SDS011;66401;42.016;21.454;2023-07-13T05:02:40;9.70;;;5.30;;
62788;SDS011;66401;42.016;21.454;2023-07-13T05:05:09;7.23;;;5.83;;
62788;SDS011;66401;42.016;21.454;2023-07-13T05:07:35;8.37;;;5.73;;
62788;SDS011;66401;42.016;21.454;2023-07-13T05:10:01;9.97;;;5.23;;
62788;SDS011;66401;42.016;21.454;2023-07-13T05:12:28;7.70;;;5.00;;
62788;SDS011;66401;42.016;21.454;2023-07-13T05:14:54;11.77;;;5.97;;
62788;SDS011;66401;42.016;21.454;2023-07-13T05:17:20;10.40;;;5.67;;
62788;SDS011;66401;42.016;21.454;2023-07-13T05:19:45;10.57;;;6.03;;
62788;SDS011;66401;42.016;21.454;2023-07-13T05:22:11;7.57;;;5.97;;
62788;SDS011;66401;42.016;21.454;2023-07-13T05:24:36;10.57;;;5.60;;
62788;SDS011;66401;42.016;21.454;2023-07-13T05:27:02;8.23;;;5.87;;
62788;SDS011;66401;42.016;21.454;2023-07-13T05:29:28;9.57;;;5.93;;
62788;SDS011;66401;42.016;21.454;2023-07-13T05:31:54;6.57;;;5.87;;
62788;SDS011;66401;42.016;21.454;2023-07-13T05:34:19;11.50;;;6.23;;
62788;SDS011;66401;42.016;21.454;2023-07-13T05:36:45;12.80;;;5.77;;
62788;SDS011;66401;42.016;21.454;2023-07-13T05:39:10;7.37;;;6.17;;
62788;SDS011;66401;42.016;21.454;2023-07-13T05:41:36;8.43;;;5.63;;
62788;SDS011;66401;42.016;21.454;2023-07-13T05:44:02;6.70;;;5.70;;
62788;SDS011;66401;42.016;21.454;2023-07-13T05:46:28;13.37;;;6.43;;
62788;SDS011;66401;42.016;21.454;2023-07-13T05:48:56;6.80;;;6.10;;
62788;SDS011;66401;42.016;21.454;2023-07-13T05:51:22;10.53;;;6.00;;
62788;SDS011;66401;42.016;21.454;2023-07-13T05:53:47;6.70;;;6.00;;
62788;SDS011;66401;42.016;21.454;2023-07-13T05:56:13;9.33;;;5.13;;
62788;SDS011;66401;42.016;21.454;2023-07-13T05:58:38;9.63;;;5.50;;
62788;SDS011;66401;42.016;21.454;2023-07-13T06:01:05;11.60;;;5.43;;
62788;SDS011;66401;42.016;21.454;2023-07-13T06:03:35;8.57;;;5.13;;
62788;SDS011;66401;42.016;21.454;2023-07-13T06:06:00;9.27;;;4.90;;
62788;SDS011;66401;42.016;21.454;2023-07-13T06:08:26;9.20;;;4.83;;
62788;SDS011;66401;42.016;21.454;2023-07-13T06:10:52;9.27;;;5.03;;
62788;SDS011;66401;42.016;21.454;2023-07-13T06:13:18;7.50;;;4.53;;
62788;SDS011;66401;42.016;21.454;2023-07-13T06:15:48;6.77;;;4.83;;
62788;SDS011;66401;42.016;21.454;2023-07-13T06:18:14;6.90;;;4.73;;
62788;SDS011;66401;42.016;21.454;2023-07-13T06:20:40;5.27;;;4.47;;
62788;SDS011;66401;42.016;21.454;2023-07-13T06:23:05;7.50;;;4.47;;
62788;SDS011;66401;42.016;21.454;2023-07-13T06:25:31;8.63;;;4.43;;
62788;SDS011;66401;42.016;21.454;2023-07-13T06:27:56;5.60;;;4.50;;
62788;SDS011;66401;42.016;21.454;2023-07-13T06:30:22;8.13;;;5.17;;
62788;SDS011;66401;42.016;21.454;2023-07-13T06:32:47;7.80;;;4.53;;
62788;SDS011;66401;42.016;21.454;2023-07-13T06:35:13;9.37;;;4.97;;
62788;SDS011;66401;42.016;21.454;2023-07-13T06:37:38;8.87;;;4.70;;
62788;SDS011;66401;42.016;21.454;2023-07-13T06:40:04;8.87;;;4.80;;
62788;SDS011;66401;42.016;21.454;2023-07-13T06:42:31;8.07;;;5.00;;
62788;SDS011;66401;42.016;21.454;2023-07-13T06:44:56;8.67;;;4.63;;
62788;SDS011;66401;42.016;21.454;2023-07-13T06:47:22;9.03;;;5.17;;
62788;SDS011;66401;42.016;21.454;2023-07-13T06:49:47;8.67;;;5.27;;
62788;SDS011;66401;42.016;21.454;2023-07-13T06:52:13;6.53;;;5.07;;
62788;SDS011;66401;42.016;21.454;2023-07-13T06:54:38;5.90;;;4.77;;
62788;SDS011;66401;42.016;21.454;2023-07-13T06:57:04;6.60;;;4.90;;
62788;SDS011;66401;42.016;21.454;2023-07-13T06:59:30;7.20;;;5.23;;
62788;SDS011;66401;42.016;21.454;2023-07-13T07:01:55;8.43;;;5.13;;
62788;SDS011;66401;42.016;21.454;2023-07-13T07:04:21;6.43;;;5.13;;
62788;SDS011;66401;42.016;21.454;2023-07-13T07:06:46;9.83;;;5.27;;
62788;SDS011;66401;42.016;21.454;2023-07-13T07:09:12;12.87;;;6.30;;
62788;SDS011;66401;42.016;21.454;2023-07-13T07:11:38;13.70;;;7.73;;
62788;SDS011;66401;42.016;21.454;2023-07-13T07:14:04;14.70;;;7.43;;
62788;SDS011;66401;42.016;21.454;2023-07-13T07:16:29;12.33;;;7.83;;
62788;SDS011;66401;42.016;21.454;2023-07-13T07:18:55;15.10;;;8.07;;
62788;SDS011;66401;42.016;21.454;2023-07-13T07:21:20;12.87;;;8.77;;
62788;SDS011;66401;42.016;21.454;2023-07-13T07:23:48;14.77;;;9.90;;
62788;SDS011;66401;42.016;21.454;2023-07-13T07:26:14;11.30;;;7.67;;
62788;SDS011;66401;42.016;21.454;2023-07-13T07:28:39;15.67;;;8.27;;
62788;SDS011;66401;42.016;21.454;2023-07-13T07:31:05;15.97;;;9.63;;
62788;SDS011;66401;42.016;21.454;2023-07-13T07:33:32;14.70;;;9.63;;
62788;SDS011;66401;42.016;21.454;2023-07-13T07:35:59;16.63;;;9.50;;
62788;SDS011;66401;42.016;21.454;2023-07-13T07:38:25;16.57;;;10.10;;
62788;SDS011;66401;42.016;21.454;2023-07-13T07:40:51;16.83;;;8.80;;
62788;SDS011;66401;42.016;21.454;2023-07-13T07:43:18;14.83;;;8.97;;
62788;SDS011;66401;42.016;21.454;2023-07-13T07:45:44;14.13;;;9.13;;
62788;SDS011;66401;42.016;21.454;2023-07-13T07:48:10;18.97;;;10.20;;
62788;SDS011;66401;42.016;21.454;2023-07-13T07:50:36;18.27;;;9.97;;
62788;SDS011;66401;42.016;21.454;2023-07-13T07:53:02;19.07;;;11.07;;
62788;SDS011;66401;42.016;21.454;2023-07-13T07:55:28;20.70;;;9.90;;
62788;SDS011;66401;42.016;21.454;2023-07-13T08:00:22;16.87;;;10.80;;
62788;SDS011;66401;42.016;21.454;2023-07-13T08:02:48;17.63;;;11.10;;
62788;SDS011;66401;42.016;21.454;2023-07-13T08:05:19;19.33;;;10.77;;
62788;SDS011;66401;42.016;21.454;2023-07-13T08:07:45;15.27;;;9.73;;
62788;SDS011;66401;42.016;21.454;2023-07-13T08:10:10;14.63;;;10.00;;
62788;SDS011;66401;42.016;21.454;2023-07-13T08:12:37;13.83;;;8.57;;
62788;SDS011;66401;42.016;21.454;2023-07-13T08:15:03;11.60;;;7.80;;
62788;SDS011;66401;42.016;21.454;2023-07-13T08:17:29;16.97;;;8.30;;
62788;SDS011;66401;42.016;21.454;2023-07-13T08:19:56;17.17;;;8.83;;
62788;SDS011;66401;42.016;21.454;2023-07-13T08:22:21;13.47;;;8.30;;
62788;SDS011;66401;42.016;21.454;2023-07-13T08:24:47;12.03;;;8.40;;
62788;SDS011;66401;42.016;21.454;2023-07-13T08:27:20;15.70;;;8.93;;
62788;SDS011;66401;42.016;21.454;2023-07-13T08:29:47;17.63;;;8.73;;
62788;SDS011;66401;42.016;21.454;2023-07-13T08:32:13;12.40;;;7.93;;
62788;SDS011;66401;42.016;21.454;2023-07-13T08:34:39;12.87;;;8.43;;
62788;SDS011;66401;42.016;21.454;2023-07-13T08:37:05;13.33;;;8.70;;
62788;SDS011;66401;42.016;21.454;2023-07-13T08:39:31;11.53;;;8.03;;
62788;SDS011;66401;42.016;21.454;2023-07-13T08:41:59;15.77;;;8.47;;
62788;SDS011;66401;42.016;21.454;2023-07-13T08:44:37;15.03;;;8.27;;
62788;SDS011;66401;42.016;21.454;2023-07-13T08:47:11;14.40;;;8.33;;
62788;SDS011;66401;42.016;21.454;2023-07-13T08:49:41;12.30;;;7.77;;
62788;SDS011;66401;42.016;21.454;2023-07-13T08:52:17;12.77;;;7.70;;
62788;SDS011;66401;42.016;21.454;2023-07-13T08:54:55;15.30;;;8.73;;
62788;SDS011;66401;42.016;21.454;2023-07-13T08:57:32;11.50;;;8.00;;
62788;SDS011;66401;42.016;21.454;2023-07-13T08:59:59;9.17;;;7.77;;
62788;SDS011;66401;42.016;21.454;2023-07-13T09:02:44;14.50;;;9.17;;
62788;SDS011;66401;42.016;21.454;2023-07-13T09:05:17;9.80;;;7.33;;
62788;SDS011;66401;42.016;21.454;2023-07-13T09:10:34;9.67;;;6.77;;
62788;SDS011;66401;42.016;21.454;2023-07-13T09:13:31;8.97;;;6.43;;
62788;SDS011;66401;42.016;21.454;2023-07-13T09:16:08;11.20;;;6.73;;
62788;SDS011;66401;42.016;21.454;2023-07-13T09:18:43;10.43;;;7.50;;
62788;SDS011;66401;42.016;21.454;2023-07-13T09:23:43;11.57;;;6.87;;
62788;SDS011;66401;42.016;21.454;2023-07-13T09:26:19;8.60;;;7.13;;
62788;SDS011;66401;42.016;21.454;2023-07-13T09:28:48;11.07;;;6.87;;
62788;SDS011;66401;42.016;21.454;2023-07-13T09:31:27;10.20;;;6.50;;
62788;SDS011;66401;42.016;21.454;2023-07-13T09:33:58;8.43;;;6.57;;
62788;SDS011;66401;42.016;21.454;2023-07-13T09:36:25;9.87;;;6.40;;
62788;SDS011;66401;42.016;21.454;2023-07-13T09:39:08;12.60;;;7.13;;
62788;SDS011;66401;42.016;21.454;2023-07-13T09:44:30;8.90;;;6.30;;
62788;SDS011;66401;42.016;21.454;2023-07-13T09:47:00;10.97;;;6.87;;
62788;SDS011;66401;42.016;21.454;2023-07-13T09:49:28;10.90;;;6.17;;
62788;SDS011;66401;42.016;21.454;2023-07-13T09:51:59;9.40;;;6.37;;
62788;SDS011;66401;42.016;21.454;2023-07-13T09:54:27;8.40;;;6.23;;
62788;SDS011;66401;42.016;21.454;2023-07-13T09:56:59;11.30;;;7.10;;
62788;SDS011;66401;42.016;21.454;2023-07-13T09:59:31;9.47;;;6.20;;
62788;SDS011;66401;42.016;21.454;2023-07-13T10:01:59;7.17;;;5.93;;
62788;SDS011;66401;42.016;21.454;2023-07-13T10:04:32;10.03;;;6.07;;
62788;SDS011;66401;42.016;21.454;2023-07-13T10:07:09;10.17;;;6.67;;
62788;SDS011;66401;42.016;21.454;2023-07-13T10:09:38;8.27;;;6.13;;
62788;SDS011;66401;42.016;21.454;2023-07-13T10:12:04;7.67;;;5.93;;
62788;SDS011;66401;42.016;21.454;2023-07-13T10:14:39;9.83;;;6.27;;
62788;SDS011;66401;42.016;21.454;2023-07-13T10:17:08;9.10;;;6.43;;
62788;SDS011;66401;42.016;21.454;2023-07-13T10:19:37;8.90;;;6.40;;
62788;SDS011;66401;42.016;21.454;2023-07-13T10:24:39;7.70;;;5.83;;
62788;SDS011;66401;42.016;21.454;2023-07-13T10:29:38;7.43;;;5.53;;
62788;SDS011;66401;42.016;21.454;2023-07-13T10:32:11;6.60;;;5.20;;
62788;SDS011;66401;42.016;21.454;2023-07-13T10:34:38;7.63;;;5.77;;
62788;SDS011;66401;42.016;21.454;2023-07-13T10:37:07;7.00;;;5.10;;
62788;SDS011;66401;42.016;21.454;2023-07-13T10:39:48;6.60;;;5.80;;
62788;SDS011;66401;42.016;21.454;2023-07-13T10:42:21;7.43;;;5.37;;
62788;SDS011;66401;42.016;21.454;2023-07-13T10:44:54;6.70;;;5.43;;
62788;SDS011;66401;42.016;21.454;2023-07-13T10:47:19;7.20;;;5.23;;
62788;SDS011;66401;42.016;21.454;2023-07-13T10:49:53;8.43;;;5.53;;
62788;SDS011;66401;42.016;21.454;2023-07-13T10:52:41;8.87;;;5.30;;
62788;SDS011;66401;42.016;21.454;2023-07-13T10:58:11;6.40;;;5.17;;
62788;SDS011;66401;42.016;21.454;2023-07-13T11:03:26;7.43;;;4.90;;
62788;SDS011;66401;42.016;21.454;2023-07-13T11:06:15;7.43;;;4.33;;
62788;SDS011;66401;42.016;21.454;2023-07-13T11:18:46;5.27;;;3.70;;
62788;SDS011;66401;42.016;21.454;2023-07-13T11:21:14;4.53;;;4.13;;
62788;SDS011;66401;42.016;21.454;2023-07-13T11:23:44;4.93;;;4.30;;
62788;SDS011;66401;42.016;21.454;2023-07-13T11:31:57;4.63;;;4.23;;
62788;SDS011;66401;42.016;21.454;2023-07-13T11:34:30;4.80;;;3.90;;
62788;SDS011;66401;42.016;21.454;2023-07-13T11:36:59;5.17;;;3.90;;
62788;SDS011;66401;42.016;21.454;2023-07-13T11:39:30;4.73;;;3.60;;
62788;SDS011;66401;42.016;21.454;2023-07-13T11:41:58;4.70;;;4.33;;
62788;SDS011;66401;42.016;21.454;2023-07-13T11:44:28;4.60;;;4.10;;
62788;SDS011;66401;42.016;21.454;2023-07-13T11:46:56;4.33;;;3.93;;
62788;SDS011;66401;42.016;21.454;2023-07-13T11:49:25;5.83;;;4.50;;
62788;SDS011;66401;42.016;21.454;2023-07-13T11:51:56;5.10;;;4.60;;
62788;SDS011;66401;42.016;21.454;2023-07-13T11:54:33;6.73;;;4.50;;
62788;SDS011;66401;42.016;21.454;2023-07-13T12:00:00;5.80;;;4.30;;
62788;SDS011;66401;42.016;21.454;2023-07-13T12:02:37;7.27;;;4.77;;
62788;SDS011;66401;42.016;21.454;2023-07-13T12:05:05;8.63;;;5.03;;
62788;SDS011;66401;42.016;21.454;2023-07-13T12:07:35;5.17;;;4.47;;
62788;SDS011;66401;42.016;21.454;2023-07-13T12:10:10;7.23;;;4.93;;
62788;SDS011;66401;42.016;21.454;2023-07-13T12:13:01;6.40;;;5.53;;
62788;SDS011;66401;42.016;21.454;2023-07-13T12:15:39;6.87;;;4.87;;
62788;SDS011;66401;42.016;21.454;2023-07-13T12:18:13;6.93;;;5.30;;
62788;SDS011;66401;42.016;21.454;2023-07-13T12:20:41;5.23;;;4.60;;
62788;SDS011;66401;42.016;21.454;2023-07-13T12:25:50;7.43;;;4.63;;
62788;SDS011;66401;42.016;21.454;2023-07-13T12:28:20;6.63;;;5.10;;
62788;SDS011;66401;42.016;21.454;2023-07-13T12:30:48;5.77;;;5.13;;
62788;SDS011;66401;42.016;21.454;2023-07-13T12:33:15;5.80;;;5.10;;
62788;SDS011;66401;42.016;21.454;2023-07-13T12:35:45;7.55;;;5.00;;
62788;SDS011;66401;42.016;21.454;2023-07-13T12:38:12;8.77;;;4.95;;
62788;SDS011;66401;42.016;21.454;2023-07-13T12:40:38;7.63;;;5.07;;
62788;SDS011;66401;42.016;21.454;2023-07-13T12:43:12;5.40;;;4.83;;
62788;SDS011;66401;42.016;21.454;2023-07-13T12:45:40;7.73;;;5.20;;
62788;SDS011;66401;42.016;21.454;2023-07-13T12:48:21;5.53;;;5.03;;
62788;SDS011;66401;42.016;21.454;2023-07-13T12:53:38;7.63;;;5.07;;
62788;SDS011;66401;42.016;21.454;2023-07-13T12:56:08;7.32;;;4.95;;
62788;SDS011;66401;42.016;21.454;2023-07-13T12:58:42;8.40;;;4.90;;
62788;SDS011;66401;42.016;21.454;2023-07-13T13:01:10;7.07;;;5.32;;
62788;SDS011;66401;42.016;21.454;2023-07-13T13:03:38;9.47;;;5.70;;
62788;SDS011;66401;42.016;21.454;2023-07-13T13:08:49;7.07;;;5.18;;
62788;SDS011;66401;42.016;21.454;2023-07-13T13:11:16;5.47;;;4.95;;
62788;SDS011;66401;42.016;21.454;2023-07-13T13:13:43;5.53;;;5.03;;
62788;SDS011;66401;42.016;21.454;2023-07-13T13:18:47;6.43;;;4.90;;
62788;SDS011;66401;42.016;21.454;2023-07-13T13:21:14;5.78;;;5.05;;
62788;SDS011;66401;42.016;21.454;2023-07-13T13:23:41;6.15;;;5.18;;
62788;SDS011;66401;42.016;21.454;2023-07-13T13:26:10;6.57;;;5.32;;
62788;SDS011;66401;42.016;21.454;2023-07-13T13:28:36;6.65;;;5.30;;
62788;SDS011;66401;42.016;21.454;2023-07-13T13:31:02;5.93;;;5.32;;
62788;SDS011;66401;42.016;21.454;2023-07-13T13:33:27;5.20;;;4.70;;
62788;SDS011;66401;42.016;21.454;2023-07-13T13:35:53;5.78;;;5.03;;
62788;SDS011;66401;42.016;21.454;2023-07-13T13:38:20;8.88;;;5.47;;
62788;SDS011;66401;42.016;21.454;2023-07-13T13:40:49;11.77;;;5.53;;
62788;SDS011;66401;42.016;21.454;2023-07-13T13:43:22;7.38;;;5.13;;
62788;SDS011;66401;42.016;21.454;2023-07-13T13:45:56;6.20;;;5.20;;
62788;SDS011;66401;42.016;21.454;2023-07-13T13:48:32;7.47;;;5.57;;
62788;SDS011;66401;42.016;21.454;2023-07-13T13:51:00;6.90;;;5.23;;
62788;SDS011;66401;42.016;21.454;2023-07-13T13:53:29;6.00;;;4.97;;
62788;SDS011;66401;42.016;21.454;2023-07-13T13:55:54;6.13;;;5.10;;
62788;SDS011;66401;42.016;21.454;2023-07-13T13:58:20;5.67;;;5.07;;
62788;SDS011;66401;42.016;21.454;2023-07-13T14:00:46;6.18;;;5.55;;
62788;SDS011;66401;42.016;21.454;2023-07-13T14:03:22;5.50;;;5.00;;
62788;SDS011;66401;42.016;21.454;2023-07-13T14:05:48;5.57;;;4.77;;
62788;SDS011;66401;42.016;21.454;2023-07-13T14:08:15;6.80;;;5.27;;
62788;SDS011;66401;42.016;21.454;2023-07-13T14:10:46;5.57;;;5.03;;
62788;SDS011;66401;42.016;21.454;2023-07-13T14:13:16;6.60;;;5.03;;
62788;SDS011;66401;42.016;21.454;2023-07-13T14:15:51;7.90;;;5.10;;
62788;SDS011;66401;42.016;21.454;2023-07-13T14:18:17;5.32;;;4.82;;
62788;SDS011;66401;42.016;21.454;2023-07-13T14:20:47;12.67;;;9.43;;
62788;SDS011;66401;42.016;21.454;2023-07-13T14:23:14;6.18;;;4.90;;
62788;SDS011;66401;42.016;21.454;2023-07-13T14:25:41;11.20;;;5.45;;
62788;SDS011;66401;42.016;21.454;2023-07-13T14:30:46;8.20;;;5.28;;
62788;SDS011;66401;42.016;21.454;2023-07-13T14:33:12;5.40;;;4.90;;
62788;SDS011;66401;42.016;21.454;2023-07-13T14:35:38;7.13;;;5.10;;
62788;SDS011;66401;42.016;21.454;2023-07-13T14:38:03;6.15;;;4.80;;
62788;SDS011;66401;42.016;21.454;2023-07-13T14:40:30;8.40;;;4.53;;
62788;SDS011;66401;42.016;21.454;2023-07-13T14:42:58;7.03;;;4.85;;
62788;SDS011;66401;42.016;21.454;2023-07-13T14:45:23;5.97;;;4.90;;
62788;SDS011;66401;42.016;21.454;2023-07-13T14:47:50;7.57;;;4.80;;
62788;SDS011;66401;42.016;21.454;2023-07-13T14:50:18;5.53;;;4.87;;
62788;SDS011;66401;42.016;21.454;2023-07-13T14:52:45;6.73;;;4.93;;
62788;SDS011;66401;42.016;21.454;2023-07-13T14:55:16;9.55;;;4.35;;
62788;SDS011;66401;42.016;21.454;2023-07-13T14:57:50;6.97;;;4.70;;
62788;SDS011;66401;42.016;21.454;2023-07-13T15:00:17;7.53;;;5.00;;
62788;SDS011;66401;42.016;21.454;2023-07-13T15:02:55;6.57;;;4.43;;
62788;SDS011;66401;42.016;21.454;2023-07-13T15:05:26;5.63;;;4.90;;
62788;SDS011;66401;42.016;21.454;2023-07-13T15:07:56;6.20;;;4.47;;
62788;SDS011;66401;42.016;21.454;2023-07-13T15:10:30;7.60;;;4.87;;
62788;SDS011;66401;42.016;21.454;2023-07-13T15:12:59;9.80;;;5.43;;
62788;SDS011;66401;42.016;21.454;2023-07-13T15:15:28;7.17;;;4.70;;
62788;SDS011;66401;42.016;21.454;2023-07-13T15:17:57;12.65;;;6.00;;
62788;SDS011;66401;42.016;21.454;2023-07-13T15:22:54;6.43;;;4.55;;
62788;SDS011;66401;42.016;21.454;2023-07-13T15:25:22;6.95;;;4.32;;
62788;SDS011;66401;42.016;21.454;2023-07-13T15:27:55;6.70;;;4.37;;
62788;SDS011;66401;42.016;21.454;2023-07-13T15:30:25;5.80;;;4.47;;
62788;SDS011;66401;42.016;21.454;2023-07-13T15:33:09;11.80;;;5.17;;
62788;SDS011;66401;42.016;21.454;2023-07-13T15:35:42;4.78;;;4.20;;
62788;SDS011;66401;42.016;21.454;2023-07-13T15:38:13;6.20;;;4.17;;
62788;SDS011;66401;42.016;21.454;2023-07-13T15:40:40;8.93;;;4.80;;